Bivins, Texas
Current Conditions -  °F | °C
As of 7:53 AM on Thursday 18 Dec 2014 (Local Time) from KTXK Reporting Station
Overcast Overcast  
Wind Chill: 40°   Ceiling: 600
Heat Index: 40°   Visibility: 8mi
Dew Point: 39°   Wind: 3mph
Humidity: 97%   Direction: 80°E
Pressure: 30.19"   Gusts: NA
Location:  33.02°N, 94.2°W
Report Text: KTXK 181353Z 08003KT 8SM BKN006 OVC020 04/04 A3019 RMK AO2 SLP224 T00440039
Loading
Personal Weather Stations






























Interactive Weather Map New forecast layout! Learn more

10-Day Weather Forecast

Advertisements
Track Severe Weather on mobile